Time;durP1;ratioP1;P1;durP2;ratioP2;P2;SDS_P1;SDS_P2;PMS_P1;PMS_P2;Temp;Humidity;BMP_temperature;BMP_pressure;BME280_temperature;BME280_humidity;BME280_pressure;Samples;Min_cycle;Max_cycle;Signal;HPM_P1;HPM_P2
2023/12/01 00:00:14;;;;;;;102.43;17.80;;;;;;;4.35;68.92;100559.09;5031193;28;20099;-46
2023/12/01 00:02:40;;;;;;;53.42;17.25;;;;;;;4.56;68.33;100564.09;5032959;28;20506;-46
2023/12/01 00:05:06;;;;;;;55.88;17.80;;;;;;;4.52;68.90;100559.63;5030980;28;20037;-45
2023/12/01 00:07:32;;;;;;;49.70;16.77;;;;;;;4.39;69.06;100559.22;5031476;28;20111;-45
2023/12/01 00:09:57;;;;;;;57.70;17.85;;;;;;;4.51;68.64;100555.31;5031155;28;20120;-45
2023/12/01 00:12:22;;;;;;;49.47;16.77;;;;;;;3.81;71.33;100566.69;5015361;28;20037;-45
2023/12/01 00:14:48;;;;;;;43.75;17.25;;;;;;;4.41;69.29;100573.06;5031436;28;20033;-45
2023/12/01 00:17:13;;;;;;;68.53;18.10;;;;;;;4.49;68.27;100570.75;5014316;28;20045;-46
2023/12/01 00:19:40;;;;;;;58.42;17.25;;;;;;;4.26;69.44;100574.28;5031046;28;20557;-46
2023/12/01 00:22:06;;;;;;;51.70;18.10;;;;;;;4.63;67.81;100571.22;5032567;28;20044;-48
2023/12/01 00:24:31;;;;;;;52.55;19.23;;;;;;;4.61;68.49;100580.59;5010637;28;20480;-47
2023/12/01 00:26:57;;;;;;;54.00;18.70;;;;;;;4.54;68.28;100576.06;4995162;28;20125;-52
2023/12/01 00:29:22;;;;;;;47.65;18.13;;;;;;;4.72;67.94;100577.53;5032904;28;20026;-45
2023/12/01 00:31:47;;;;;;;45.40;17.85;;;;;;;4.81;67.37;100588.16;5032596;28;20041;-48
2023/12/01 00:34:13;;;;;;;49.50;18.33;;;;;;;4.57;68.46;100592.53;5030984;28;20104;-45
2023/12/01 00:36:38;;;;;;;44.08;18.17;;;;;;;4.57;68.75;100589.97;5009015;28;20038;-48
2023/12/01 00:39:04;;;;;;;55.58;17.58;;;;;;;4.10;68.79;100593.50;5010731;28;20431;-46
2023/12/01 00:41:29;;;;;;;45.00;16.90;;;;;;;4.37;68.40;100588.41;4994671;28;20026;-47
2023/12/01 00:43:54;;;;;;;50.55;17.45;;;;;;;4.56;67.94;100595.06;5011200;28;20044;-47
2023/12/01 00:46:20;;;;;;;48.85;17.02;;;;;;;4.66;67.68;100592.81;5010958;28;20377;-47
2023/12/01 00:48:45;;;;;;;45.90;17.17;;;;;;;4.34;68.56;100606.34;5012491;28;20029;-45
2023/12/01 00:51:20;;;;;;;45.83;17.35;;;;;;;3.96;69.59;100607.63;5011246;28;20034;-45
2023/12/01 00:53:48;;;;;;;53.75;18.50;;;;;;;4.20;67.95;100605.91;5012630;28;20029;-46
2023/12/01 00:56:15;;;;;;;49.17;18.17;;;;;;;4.16;68.63;100613.47;5010524;28;20064;-49
2023/12/01 00:58:41;;;;;;;47.17;18.40;;;;;;;4.48;68.30;100610.28;5012464;28;20034;-46
2023/12/01 01:01:06;;;;;;;46.63;17.95;;;;;;;4.51;68.08;100607.84;5011719;28;20037;-48
2023/12/01 01:03:33;;;;;;;51.03;18.40;;;;;;;4.24;69.03;100614.63;5012642;28;20116;-46
2023/12/01 01:05:58;;;;;;;48.47;18.45;;;;;;;4.14;68.96;100613.44;4994340;28;20488;-45
2023/12/01 01:08:23;;;;;;;55.75;19.98;;;;;;;4.21;68.72;100606.78;5014236;28;20040;-45
2023/12/01 01:10:49;;;;;;;54.92;19.50;;;;;;;3.75;69.49;100623.19;5031805;28;20025;-45
2023/12/01 01:13:14;;;;;;;58.90;18.85;;;;;;;3.95;69.68;100631.66;5031250;28;20037;-45
2023/12/01 01:15:40;;;;;;;54.90;17.38;;;;;;;3.60;69.95;100630.34;5031634;28;20040;-47
2023/12/01 01:18:06;;;;;;;52.92;18.42;;;;;;;3.86;70.02;100631.31;5030106;28;20068;-46
2023/12/01 01:20:32;;;;;;;46.60;16.27;;;;;;;3.84;69.65;100627.84;5030371;28;20307;-46
2023/12/01 01:22:57;;;;;;;51.05;15.50;;;;;;;3.46;69.75;100627.28;5005337;28;20468;-46
2023/12/01 01:25:23;;;;;;;44.67;15.93;;;;;;;3.86;69.35;100634.78;5010391;28;20030;-46
2023/12/01 01:27:48;;;;;;;48.97;14.05;;;;;;;3.52;69.87;100631.78;5012019;28;20037;-49
2023/12/01 01:30:14;;;;;;;40.78;14.55;;;;;;;3.32;68.67;100636.19;5011129;28;20117;-45
2023/12/01 01:32:39;;;;;;;41.03;14.20;;;;;;;3.62;69.04;100644.19;4994378;28;20041;-46
2023/12/01 01:35:05;;;;;;;44.25;14.52;;;;;;;3.56;68.88;100638.81;5010004;28;20372;-49
2023/12/01 01:37:30;;;;;;;39.47;14.90;;;;;;;3.85;68.76;100640.75;5010323;28;20034;-46
2023/12/01 01:39:55;;;;;;;40.22;14.93;;;;;;;3.71;68.77;100641.09;4978011;28;20033;-46
2023/12/01 01:42:21;;;;;;;44.67;14.98;;;;;;;4.12;67.55;100652.91;4997002;28;20559;-47
2023/12/01 01:44:46;;;;;;;42.92;15.45;;;;;;;3.90;67.99;100657.31;5030064;28;20033;-44
2023/12/01 01:47:12;;;;;;;41.30;14.25;;;;;;;4.27;68.04;100653.44;5030563;28;20055;-48
2023/12/01 01:49:38;;;;;;;44.88;15.32;;;;;;;3.96;68.37;100660.09;5031864;28;20037;-46
2023/12/01 01:52:04;;;;;;;43.55;15.32;;;;;;;4.13;67.67;100662.41;5029632;28;20159;-47
2023/12/01 01:54:30;;;;;;;42.60;15.20;;;;;;;4.20;67.38;100660.09;5030301;28;20511;-48
2023/12/01 01:56:57;;;;;;;43.90;15.30;;;;;;;4.28;67.27;100660.34;5032060;28;20068;-48
2023/12/01 01:59:23;;;;;;;45.40;15.18;;;;;;;4.09;67.88;100659.69;5029987;28;20377;-46
2023/12/01 02:01:49;;;;;;;45.00;16.45;;;;;;;3.95;69.03;100654.88;5030872;28;20112;-46
2023/12/01 02:04:16;;;;;;;42.97;14.70;;;;;;;3.71;69.96;100665.19;5031897;28;20117;-46
2023/12/01 02:06:41;;;;;;;51.85;16.42;;;;;;;3.75;69.45;100661.88;5031542;28;20103;-45
2023/12/01 02:09:06;;;;;;;43.42;16.35;;;;;;;3.92;68.64;100660.78;5031730;28;20037;-48
2023/12/01 02:11:33;;;;;;;45.75;16.40;;;;;;;4.01;68.93;100665.41;5030792;28;20087;-48
2023/12/01 02:13:59;;;;;;;47.17;16.75;;;;;;;3.96;69.12;100669.53;5028749;28;20032;-47
2023/12/01 02:16:25;;;;;;;47.33;16.02;;;;;;;4.16;68.21;100667.66;5029100;28;20325;-46
2023/12/01 02:18:54;;;;;;;40.85;16.05;;;;;;;3.96;68.06;100661.81;5030406;28;20034;-46
2023/12/01 02:21:27;;;;;;;45.30;16.25;;;;;;;4.25;67.31;100661.13;5029652;28;20033;-45
2023/12/01 02:23:55;;;;;;;41.25;14.60;;;;;;;3.59;68.04;100662.13;5029460;28;20392;-47
2023/12/01 02:26:22;;;;;;;40.75;14.05;;;;;;;3.59;68.31;100659.56;5028214;28;20037;-47
2023/12/01 02:28:48;;;;;;;40.55;13.90;;;;;;;3.50;68.80;100670.38;5030681;28;20029;-46
2023/12/01 02:31:14;;;;;;;41.13;14.95;;;;;;;3.90;68.46;100679.63;5028820;28;20373;-50
2023/12/01 02:33:39;;;;;;;40.70;14.38;;;;;;;3.94;68.25;100676.34;5012854;28;20048;-47
2023/12/01 02:36:06;;;;;;;39.50;14.00;;;;;;;3.99;68.00;100674.78;5030229;28;20057;-46
2023/12/01 02:38:33;;;;;;;42.47;14.90;;;;;;;3.81;68.59;100681.84;5030144;28;20104;-52
2023/12/01 02:40:58;;;;;;;39.45;13.60;;;;;;;4.12;67.43;100676.13;5030053;28;20041;-45
2023/12/01 02:43:24;;;;;;;45.13;15.70;;;;;;;3.74;68.23;100677.28;5028879;28;20059;-45
2023/12/01 02:45:50;;;;;;;43.20;14.68;;;;;;;3.97;67.76;100681.59;5029413;28;20029;-47
2023/12/01 02:48:16;;;;;;;42.22;14.90;;;;;;;3.95;67.96;100684.13;5001584;28;20144;-46
2023/12/01 02:50:42;;;;;;;39.47;14.43;;;;;;;3.85;68.59;100676.84;5010147;28;20552;-48
2023/12/01 02:53:07;;;;;;;41.70;14.00;;;;;;;3.94;67.74;100679.78;5010057;28;20057;-46
2023/12/01 02:55:33;;;;;;;37.45;12.73;;;;;;;3.58;69.11;100674.16;5009242;28;20133;-48
2023/12/01 02:57:59;;;;;;;32.80;12.68;;;;;;;3.56;69.34;100674.88;5010098;28;20481;-45
2023/12/01 03:00:25;;;;;;;34.30;12.02;;;;;;;3.66;68.60;100680.44;4992445;28;20034;-46
2023/12/01 03:02:51;;;;;;;32.58;11.95;;;;;;;3.76;68.31;100678.22;5008806;28;20038;-48
2023/12/01 03:05:17;;;;;;;33.13;11.82;;;;;;;4.14;66.83;100670.19;4991890;28;20034;-47
2023/12/01 03:07:43;;;;;;;33.63;11.88;;;;;;;3.98;67.23;100675.59;5008565;28;20034;-46
2023/12/01 03:10:09;;;;;;;34.05;11.88;;;;;;;3.66;68.05;100674.41;5008284;28;20550;-49
2023/12/01 03:12:35;;;;;;;34.47;11.90;;;;;;;4.04;67.38;100673.25;5009865;28;20034;-46
2023/12/01 03:15:00;;;;;;;34.80;12.05;;;;;;;4.18;66.34;100674.63;4992274;28;20798;-48
2023/12/01 03:17:26;;;;;;;32.03;10.95;;;;;;;3.98;66.46;100673.91;5030748;28;20034;-45
2023/12/01 03:19:52;;;;;;;34.40;11.57;;;;;;;3.87;67.50;100679.50;5030846;28;20026;-46
2023/12/01 03:22:18;;;;;;;27.58;10.60;;;;;;;3.77;67.70;100683.44;5034222;28;20103;-45
2023/12/01 03:24:47;;;;;;;28.80;10.82;;;;;;;3.91;67.38;100681.34;5036283;28;20144;-50
2023/12/01 03:27:19;;;;;;;29.75;10.18;;;;;;;3.58;67.92;100674.16;5036850;28;20054;-46
2023/12/01 03:29:46;;;;;;;30.02;10.65;;;;;;;3.95;67.19;100686.72;5032828;28;20121;-46
2023/12/01 03:32:11;;;;;;;30.67;10.68;;;;;;;3.83;66.75;100690.53;5030663;28;20051;-48
2023/12/01 03:34:36;;;;;;;29.80;10.35;;;;;;;3.91;67.73;100689.09;5029409;28;20029;-45
2023/12/01 03:37:02;;;;;;;30.38;10.48;;;;;;;4.09;66.84;100689.78;5029265;28;20025;-45
2023/12/01 03:39:27;;;;;;;30.38;10.95;;;;;;;3.80;67.06;100682.66;5028944;28;20030;-45
2023/12/01 03:41:52;;;;;;;33.75;11.38;;;;;;;3.77;67.75;100690.31;5027711;28;20029;-46
2023/12/01 03:44:18;;;;;;;30.77;10.82;;;;;;;3.91;67.08;100691.69;5028755;28;20067;-47
2023/12/01 03:46:43;;;;;;;30.23;11.02;;;;;;;3.63;68.01;100694.94;5029118;28;20034;-46
2023/12/01 03:49:09;;;;;;;34.42;11.05;;;;;;;3.58;67.93;100693.88;5011348;28;20068;-45
2023/12/01 03:51:36;;;;;;;35.60;10.63;;;;;;;3.43;67.87;100695.84;5027726;28;20040;-46
2023/12/01 03:54:01;;;;;;;37.70;12.15;;;;;;;3.90;67.26;100702.84;5027418;28;20036;-46
2023/12/01 03:56:26;;;;;;;37.42;13.00;;;;;;;3.86;67.90;100713.84;5028077;28;20029;-47
2023/12/01 03:58:56;;;;;;;34.63;11.43;;;;;;;3.69;66.85;100705.47;5028115;28;20139;-45
2023/12/01 04:01:28;;;;;;;34.35;11.88;;;;;;;3.84;67.44;100713.78;5027414;28;20194;-46
2023/12/01 04:03:53;;;;;;;37.67;12.02;;;;;;;3.81;67.88;100713.69;5028096;28;20037;-47
2023/12/01 04:06:19;;;;;;;34.55;12.55;;;;;;;4.04;66.51;100719.69;5028630;28;20044;-48
2023/12/01 04:08:44;;;;;;;32.90;11.77;;;;;;;3.74;66.94;100719.41;5011530;28;20033;-47
2023/12/01 04:11:09;;;;;;;38.72;12.63;;;;;;;3.58;67.04;100723.13;5028724;28;20444;-46
2023/12/01 04:13:35;;;;;;;36.03;12.70;;;;;;;4.03;66.67;100725.66;5027940;28;20112;-48
2023/12/01 04:16:01;;;;;;;35.03;12.48;;;;;;;3.91;66.94;100723.50;5027443;28;20098;-49
2023/12/01 04:18:29;;;;;;;36.47;12.32;;;;;;;4.19;66.04;100721.97;5028842;28;20037;-55
2023/12/01 04:20:55;;;;;;;37.20;12.60;;;;;;;4.21;66.07;100725.47;5028906;28;20087;-46
2023/12/01 04:23:20;;;;;;;34.80;12.13;;;;;;;4.04;67.17;100720.56;5028402;28;20037;-44
2023/12/01 04:25:46;;;;;;;33.17;11.85;;;;;;;4.10;66.91;100725.06;5030569;28;20037;-43
2023/12/01 04:28:13;;;;;;;34.33;12.07;;;;;;;3.65;67.61;100729.41;5031008;28;20026;-46
2023/12/01 04:30:39;;;;;;;28.05;10.93;;;;;;;3.88;66.56;100738.00;5032778;28;20034;-46
2023/12/01 04:33:04;;;;;;;31.30;10.55;;;;;;;4.02;67.03;100731.66;5032444;28;20091;-45
2023/12/01 04:35:32;;;;;;;35.45;11.43;;;;;;;3.83;67.00;100743.00;5031418;28;20025;-48
2023/12/01 04:38:00;;;;;;;32.13;11.35;;;;;;;4.19;65.60;100740.91;5030674;28;20467;-44
2023/12/01 04:40:27;;;;;;;32.20;11.63;;;;;;;4.09;66.48;100741.34;5030560;28;20499;-50
2023/12/01 04:42:55;;;;;;;28.45;10.40;;;;;;;3.94;66.11;100735.66;5032547;28;20227;-46
2023/12/01 04:45:21;;;;;;;29.98;11.02;;;;;;;3.96;65.73;100744.34;5031212;28;20072;-47
2023/12/01 04:47:51;;;;;;;33.28;11.55;;;;;;;4.01;66.26;100748.84;5008170;28;20026;-45
2023/12/01 04:50:21;;;;;;;31.92;10.48;;;;;;;4.03;66.21;100757.50;5010791;28;21390;-47
2023/12/01 04:52:54;;;;;;;28.92;11.15;;;;;;;4.17;66.02;100762.28;5012211;28;20080;-46
2023/12/01 04:55:22;;;;;;;29.25;10.35;;;;;;;4.17;65.23;100760.59;5011000;28;20030;-44
2023/12/01 04:57:48;;;;;;;29.55;10.73;;;;;;;4.13;65.23;100766.47;5011125;28;20121;-46
2023/12/01 05:00:22;;;;;;;29.25;10.02;;;;;;;4.17;65.56;100765.75;5011592;28;20030;-47
2023/12/01 05:02:52;;;;;;;28.37;10.77;;;;;;;3.83;65.58;100763.63;5012677;28;20042;-46
2023/12/01 05:05:20;;;;;;;30.52;10.70;;;;;;;4.24;65.29;100762.59;5011097;28;20184;-49
2023/12/01 05:07:49;;;;;;;29.77;10.70;;;;;;;4.05;65.51;100773.91;5011486;28;20040;-45
2023/12/01 05:10:15;;;;;;;27.05;10.52;;;;;;;4.39;64.52;100770.03;5011992;28;20337;-45
2023/12/01 05:12:42;;;;;;;29.55;11.38;;;;;;;4.23;64.63;100772.84;5011535;28;20379;-45
2023/12/01 05:15:15;;;;;;;31.58;10.77;;;;;;;4.34;64.49;100781.84;5012299;28;20447;-47
2023/12/01 05:17:42;;;;;;;29.20;10.43;;;;;;;4.32;64.77;100774.06;5013068;28;20034;-48
2023/12/01 05:20:15;;;;;;;30.55;11.13;;;;;;;4.30;65.53;100775.72;5012122;28;20484;-48
2023/12/01 05:22:41;;;;;;;27.25;10.75;;;;;;;4.39;64.23;100777.75;5013612;28;20032;-46
2023/12/01 05:25:13;;;;;;;32.30;11.73;;;;;;;4.46;63.67;100788.34;4995347;28;20100;-47
2023/12/01 05:27:38;;;;;;;32.83;12.05;;;;;;;4.21;64.45;100777.94;5030414;28;20068;-45
2023/12/01 05:30:05;;;;;;;36.38;12.27;;;;;;;4.74;62.93;100779.00;5030997;28;20451;-47
2023/12/01 05:32:31;;;;;;;35.38;12.02;;;;;;;4.58;63.01;100782.75;5031417;28;20029;-48
2023/12/01 05:34:56;;;;;;;34.63;12.57;;;;;;;4.79;62.76;100782.63;5030187;28;20087;-49
2023/12/01 05:37:21;;;;;;;35.20;12.35;;;;;;;4.40;63.21;100788.13;5029021;28;20083;-47
2023/12/01 05:39:46;;;;;;;32.33;11.93;;;;;;;4.36;63.89;100791.41;5030005;28;20383;-47
2023/12/01 05:42:12;;;;;;;38.00;13.75;;;;;;;4.65;63.20;100789.88;5030924;28;20033;-46
2023/12/01 05:44:37;;;;;;;34.45;12.57;;;;;;;4.59;62.57;100796.53;5030097;28;20116;-46
2023/12/01 05:47:03;;;;;;;44.40;14.50;;;;;;;4.33;62.60;100795.59;5030815;28;20038;-50
2023/12/01 05:49:28;;;;;;;38.53;14.02;;;;;;;4.48;63.15;100796.16;5031089;28;20048;-46
2023/12/01 05:51:53;;;;;;;35.67;13.45;;;;;;;4.66;61.77;100796.81;5029838;28;20554;-47
2023/12/01 05:54:19;;;;;;;44.60;15.02;;;;;;;4.73;61.40;100803.06;5029173;28;20037;-48
2023/12/01 05:56:44;;;;;;;44.03;14.90;;;;;;;4.70;62.03;100798.66;5013205;28;20168;-47
2023/12/01 05:59:09;;;;;;;43.42;14.88;;;;;;;4.58;61.15;100805.09;5030219;28;20041;-47
2023/12/01 06:01:36;;;;;;;39.08;14.40;;;;;;;4.39;61.98;100803.56;5030589;28;20097;-49
2023/12/01 06:04:02;;;;;;;40.75;14.95;;;;;;;4.67;61.16;100808.03;5030460;28;20211;-45
2023/12/01 06:06:27;;;;;;;47.45;15.15;;;;;;;4.37;61.35;100806.09;5029261;28;20033;-47
2023/12/01 06:08:53;;;;;;;42.60;15.23;;;;;;;4.53;61.18;100809.22;5030774;28;20446;-45
2023/12/01 06:11:18;;;;;;;45.58;14.73;;;;;;;4.76;61.12;100821.25;5029890;28;20108;-45
2023/12/01 06:13:43;;;;;;;38.38;14.05;;;;;;;4.69;60.74;100817.59;5030673;28;20060;-47
2023/12/01 06:16:09;;;;;;;39.40;13.93;;;;;;;4.54;61.60;100813.56;5029710;28;20033;-45
2023/12/01 06:18:34;;;;;;;42.55;15.32;;;;;;;4.68;60.70;100817.53;5030721;28;20041;-48
2023/12/01 06:21:00;;;;;;;38.58;14.55;;;;;;;4.78;60.74;100814.44;5028907;28;20380;-49
2023/12/01 06:23:25;;;;;;;39.05;14.02;;;;;;;4.73;61.27;100818.56;5029204;28;20111;-47
2023/12/01 06:25:51;;;;;;;38.30;14.20;;;;;;;4.98;61.00;100822.91;5030537;28;20041;-47
2023/12/01 06:28:16;;;;;;;44.20;15.15;;;;;;;4.92;60.65;100817.53;5030641;28;20041;-47
2023/12/01 06:30:41;;;;;;;41.00;14.90;;;;;;;4.56;61.32;100828.31;5031784;28;20086;-45
2023/12/01 06:33:07;;;;;;;43.85;14.95;;;;;;;4.72;61.11;100827.13;5030507;28;20044;-46
2023/12/01 06:35:33;;;;;;;41.45;14.27;;;;;;;4.97;60.22;100821.13;5031060;28;20065;-49
2023/12/01 06:37:58;;;;;;;41.65;15.43;;;;;;;5.00;60.08;100822.09;5028762;28;20037;-46
2023/12/01 06:40:24;;;;;;;41.08;13.82;;;;;;;4.89;59.92;100818.28;5029205;28;20040;-46
2023/12/01 06:42:59;;;;;;;39.25;13.88;;;;;;;4.46;60.85;100821.00;5031497;28;20029;-46
2023/12/01 06:45:28;;;;;;;37.17;12.52;;;;;;;4.57;60.41;100826.59;5031158;28;20040;-46
2023/12/01 06:47:55;;;;;;;36.30;12.30;;;;;;;4.08;61.46;100827.34;5028990;28;20044;-45
2023/12/01 06:50:24;;;;;;;37.28;13.15;;;;;;;4.38;60.97;100827.63;5028022;28;20037;-45
2023/12/01 06:52:51;;;;;;;38.42;13.57;;;;;;;4.74;59.17;100817.75;5028738;28;20033;-46
2023/12/01 06:55:16;;;;;;;40.25;13.20;;;;;;;4.85;60.00;100829.34;5029989;28;20029;-44
2023/12/01 06:57:43;;;;;;;37.53;13.90;;;;;;;4.98;58.88;100830.66;5028775;28;20368;-45
2023/12/01 07:00:21;;;;;;;39.83;13.30;;;;;;;4.97;59.65;100834.06;5028275;28;20044;-49
2023/12/01 07:02:48;;;;;;;41.38;14.13;;;;;;;5.25;59.02;100834.16;5007531;28;20540;-46
2023/12/01 07:05:19;;;;;;;41.85;13.52;;;;;;;4.90;59.79;100832.97;5008557;28;20137;-45
2023/12/01 07:07:47;;;;;;;36.13;12.63;;;;;;;5.22;59.00;100844.41;5008577;28;20081;-45
2023/12/01 07:10:16;;;;;;;37.92;13.20;;;;;;;5.19;59.01;100845.19;4991923;28;20617;-45
2023/12/01 07:12:41;;;;;;;37.90;13.73;;;;;;;5.23;59.13;100852.22;4993076;28;20368;-45
2023/12/01 07:15:13;;;;;;;39.90;14.13;;;;;;;5.27;58.90;100850.63;4992061;28;20034;-45
2023/12/01 07:17:39;;;;;;;39.70;13.63;;;;;;;5.16;58.93;100857.13;5010622;28;20034;-46
2023/12/01 07:20:14;;;;;;;37.55;13.75;;;;;;;5.28;58.84;100847.22;5011355;28;20084;-45
2023/12/01 07:22:43;;;;;;;37.78;13.07;;;;;;;5.15;59.61;100853.66;5014161;28;20424;-45
2023/12/01 07:25:10;;;;;;;34.47;12.63;;;;;;;5.00;59.51;100847.94;5011532;28;20369;-46
2023/12/01 07:27:39;;;;;;;39.33;13.35;;;;;;;5.19;59.35;100860.69;4992521;28;20030;-45
2023/12/01 07:30:06;;;;;;;40.42;12.88;;;;;;;5.10;59.59;100860.38;5007756;28;20034;-45
2023/12/01 07:32:31;;;;;;;37.20;13.90;;;;;;;5.39;58.68;100852.72;5009198;28;20096;-47
2023/12/01 07:34:57;;;;;;;35.53;13.15;;;;;;;5.42;58.78;100860.63;5008522;28;20038;-46
2023/12/01 07:37:22;;;;;;;41.55;13.68;;;;;;;5.41;59.02;100854.56;5009554;28;20040;-46
2023/12/01 07:39:47;;;;;;;35.53;13.38;;;;;;;5.39;58.74;100863.97;5009932;28;20492;-48
2023/12/01 07:42:12;;;;;;;36.35;13.25;;;;;;;5.41;59.42;100864.03;5009370;28;20050;-46
2023/12/01 07:44:38;;;;;;;36.58;12.70;;;;;;;5.38;59.23;100862.19;5009824;28;20052;-50
2023/12/01 07:47:07;;;;;;;34.38;12.45;;;;;;;5.36;58.92;100860.41;5009170;28;20068;-48
2023/12/01 07:49:32;;;;;;;35.15;12.93;;;;;;;5.17;58.41;100864.06;5009628;28;20049;-47
2023/12/01 07:51:58;;;;;;;33.97;12.55;;;;;;;5.08;59.17;100864.59;5009894;28;20484;-50
2023/12/01 07:54:23;;;;;;;38.22;12.63;;;;;;;5.26;58.50;100865.25;5010254;28;20049;-48
2023/12/01 07:56:48;;;;;;;38.25;12.23;;;;;;;5.22;58.06;100875.44;5010019;28;20033;-45
2023/12/01 07:59:14;;;;;;;38.33;12.50;;;;;;;5.21;57.53;100866.78;5010454;28;20029;-45
2023/12/01 08:01:39;;;;;;;37.55;12.68;;;;;;;5.12;56.60;100871.63;5013907;28;20076;-46
2023/12/01 08:04:05;;;;;;;39.42;13.50;;;;;;;5.36;56.98;100870.75;5012647;28;20052;-48
2023/12/01 08:06:30;;;;;;;40.83;13.02;;;;;;;5.23;57.11;100879.78;5014088;28;20057;-44
2023/12/01 08:08:56;;;;;;;37.60;12.35;;;;;;;5.12;57.51;100878.53;5014305;28;20061;-45
2023/12/01 08:11:21;;;;;;;35.58;12.32;;;;;;;4.84;57.86;100886.97;5013476;28;20109;-47
2023/12/01 08:13:47;;;;;;;34.88;12.57;;;;;;;5.46;57.14;100888.31;5014392;28;20044;-44
2023/12/01 08:16:12;;;;;;;37.83;12.50;;;;;;;5.56;57.01;100878.31;5014652;28;20098;-44
2023/12/01 08:18:37;;;;;;;38.70;12.65;;;;;;;5.68;56.66;100881.31;5015728;28;20030;-46
2023/12/01 08:21:03;;;;;;;35.55;11.75;;;;;;;5.67;56.80;100882.13;5014884;28;20034;-44
2023/12/01 08:23:28;;;;;;;35.72;12.50;;;;;;;5.75;56.54;100876.34;5014049;28;20038;-44
2023/12/01 08:25:54;;;;;;;35.95;12.88;;;;;;;5.76;56.68;100879.00;5014299;28;20030;-48
2023/12/01 08:28:19;;;;;;;40.88;13.05;;;;;;;5.78;57.13;100882.53;5014489;28;20484;-47
2023/12/01 08:30:44;;;;;;;37.05;12.50;;;;;;;5.88;57.46;100882.00;5015065;28;20029;-47
2023/12/01 08:33:10;;;;;;;37.08;12.60;;;;;;;5.91;57.15;100881.25;5013411;28;20083;-46
2023/12/01 08:35:35;;;;;;;36.95;13.48;;;;;;;5.60;57.22;100877.63;5014246;28;20117;-45
2023/12/01 08:38:00;;;;;;;38.72;13.50;;;;;;;5.84;57.30;100881.84;5013598;28;20479;-46
2023/12/01 08:40:26;;;;;;;38.92;13.75;;;;;;;5.80;56.88;100887.72;5013844;28;20114;-47
2023/12/01 08:42:52;;;;;;;39.63;14.32;;;;;;;5.67;57.36;100889.06;5014145;28;20026;-46
2023/12/01 08:45:18;;;;;;;35.35;13.25;;;;;;;5.81;57.58;100887.78;5011085;28;20037;-45
2023/12/01 08:47:44;;;;;;;38.92;14.05;;;;;;;5.84;57.00;100887.00;5011433;28;20034;-45
2023/12/01 08:50:10;;;;;;;38.55;13.57;;;;;;;5.82;57.15;100888.66;5010845;28;20030;-46
2023/12/01 08:52:37;;;;;;;41.65;13.93;;;;;;;5.55;56.74;100896.41;5012601;28;20037;-45
2023/12/01 08:55:02;;;;;;;36.53;13.60;;;;;;;5.54;56.96;100905.88;5012144;28;20044;-49
2023/12/01 08:57:28;;;;;;;36.97;13.10;;;;;;;5.50;57.86;100903.09;5012445;28;20030;-45
2023/12/01 08:59:53;;;;;;;39.80;13.70;;;;;;;5.60;58.18;100902.59;5012774;28;20042;-48
2023/12/01 09:02:19;;;;;;;40.30;13.80;;;;;;;5.88;57.09;100897.53;5011913;28;20176;-46
2023/12/01 09:04:44;;;;;;;33.80;13.27;;;;;;;5.92;57.33;100899.38;5012467;28;20437;-47
2023/12/01 09:07:09;;;;;;;39.15;12.98;;;;;;;5.78;56.19;100898.03;5012285;28;20116;-48
2023/12/01 09:09:35;;;;;;;39.97;13.25;;;;;;;5.66;57.13;100897.63;5013033;28;20038;-47
2023/12/01 09:12:01;;;;;;;36.22;12.20;;;;;;;5.89;55.65;100901.88;5011332;28;20038;-49
2023/12/01 09:14:26;;;;;;;31.38;12.43;;;;;;;5.80;55.26;100903.25;5012178;28;20120;-46
2023/12/01 09:16:51;;;;;;;36.88;11.95;;;;;;;5.65;54.83;100912.28;5012729;28;20096;-50
2023/12/01 09:19:17;;;;;;;32.95;11.38;;;;;;;5.30;55.89;100921.41;5011873;28;20089;-46
2023/12/01 09:21:42;;;;;;;34.42;11.82;;;;;;;5.58;55.33;100923.22;5012089;28;20057;-45
2023/12/01 09:24:07;;;;;;;35.78;12.30;;;;;;;5.57;55.21;100923.16;5011368;28;20042;-46
2023/12/01 09:26:33;;;;;;;30.80;11.93;;;;;;;6.00;54.22;100928.97;5011839;28;20096;-48
2023/12/01 09:28:58;;;;;;;35.75;11.93;;;;;;;5.57;54.22;100936.97;5011051;28;20125;-48
2023/12/01 09:31:23;;;;;;;33.13;12.07;;;;;;;5.35;54.40;100931.91;5012269;28;20037;-46
2023/12/01 09:33:49;;;;;;;35.30;12.05;;;;;;;5.96;53.83;100931.44;5012173;28;20128;-47
2023/12/01 09:36:17;;;;;;;30.52;11.93;;;;;;;5.70;54.17;100933.09;5011444;28;20026;-49
2023/12/01 09:38:44;;;;;;;29.40;11.55;;;;;;;5.78;53.42;100935.97;5011840;28;20042;-51
2023/12/01 09:41:14;;;;;;;32.63;11.85;;;;;;;5.99;53.64;100934.09;5011135;28;20079;-47
2023/12/01 09:43:43;;;;;;;32.53;11.88;;;;;;;5.85;53.44;100938.81;5011838;28;20064;-50
2023/12/01 09:46:09;;;;;;;33.33;11.77;;;;;;;6.17;53.67;100934.69;5011174;28;20565;-51
2023/12/01 09:48:34;;;;;;;37.78;11.93;;;;;;;5.94;53.69;100946.00;5011683;28;20034;-46
2023/12/01 09:51:00;;;;;;;31.92;11.65;;;;;;;5.93;53.99;100941.66;5012359;28;20396;-46
2023/12/01 09:53:26;;;;;;;34.03;11.55;;;;;;;5.89;54.45;100948.47;5013855;28;20065;-48
2023/12/01 09:55:51;;;;;;;30.95;11.75;;;;;;;5.76;53.54;100946.25;5013230;28;20065;-47
2023/12/01 09:58:19;;;;;;;32.20;11.52;;;;;;;5.60;54.12;100957.78;5012285;28;20041;-45
2023/12/01 10:00:48;;;;;;;32.25;11.20;;;;;;;5.56;54.61;100962.78;5011621;28;20112;-44
2023/12/01 10:03:13;;;;;;;30.08;11.50;;;;;;;5.36;54.90;100951.75;5011106;28;20038;-45
2023/12/01 10:05:40;;;;;;;32.55;11.45;;;;;;;5.16;54.18;100948.47;5011257;28;20145;-46
2023/12/01 10:08:06;;;;;;;36.28;12.07;;;;;;;5.48;54.07;100952.19;5010909;28;20120;-46
2023/12/01 10:10:31;;;;;;;32.17;10.63;;;;;;;5.51;53.74;100954.88;5011221;28;20449;-47
2023/12/01 10:12:59;;;;;;;33.05;11.25;;;;;;;5.58;54.12;100951.69;5011591;28;20169;-46
2023/12/01 10:15:26;;;;;;;34.80;11.80;;;;;;;5.87;53.31;100938.84;5010734;28;20053;-49
2023/12/01 10:18:16;;;;;;;30.77;10.90;;;;;;;5.50;54.98;100957.41;5010960;28;20034;-48
2023/12/01 10:21:02;;;;;;;29.35;10.70;;;;;;;5.69;54.31;100950.31;5010935;28;20041;-48
2023/12/01 10:23:28;;;;;;;33.50;12.00;;;;;;;6.00;53.53;100946.22;5008134;28;20501;-46
2023/12/01 10:25:54;;;;;;;28.23;10.93;;;;;;;6.14;53.10;100944.97;5010989;28;20052;-46
2023/12/01 10:28:20;;;;;;;31.17;11.32;;;;;;;5.91;53.65;100949.41;5010417;28;20026;-49
2023/12/01 10:30:59;;;;;;;33.42;11.40;;;;;;;5.87;53.94;100952.69;5010946;28;20515;-45
2023/12/01 10:33:28;;;;;;;30.63;11.90;;;;;;;5.89;54.00;100953.63;5010800;28;20081;-47
2023/12/01 10:36:20;;;;;;;29.63;11.45;;;;;;;5.73;54.78;100953.91;5010723;28;20109;-49
2023/12/01 10:38:46;;;;;;;32.78;11.27;;;;;;;5.85;54.57;100950.88;5009514;28;20041;-51
2023/12/01 10:41:13;;;;;;;31.65;11.35;;;;;;;5.61;54.47;100949.19;5008791;28;20084;-46
2023/12/01 10:43:43;;;;;;;31.13;11.50;;;;;;;5.43;54.53;100952.88;5010594;28;20034;-46
2023/12/01 10:46:11;;;;;;;29.20;10.70;;;;;;;5.57;54.63;100947.31;5008824;28;20100;-45
2023/12/01 10:48:37;;;;;;;32.58;11.43;;;;;;;5.69;54.23;100950.31;5010698;28;20033;-46
2023/12/01 10:51:03;;;;;;;34.22;12.13;;;;;;;5.28;55.52;100959.25;5010127;28;20034;-45
2023/12/01 10:53:29;;;;;;;30.85;10.73;;;;;;;5.55;54.81;100948.97;5010598;28;20458;-46
2023/12/01 10:55:56;;;;;;;30.58;10.95;;;;;;;5.27;55.38;100952.31;5010297;28;20088;-45
2023/12/01 10:58:24;;;;;;;32.35;11.65;;;;;;;5.49;54.69;100945.31;5009928;28;20036;-47
2023/12/01 11:00:50;;;;;;;35.05;11.48;;;;;;;5.39;55.49;100954.44;5009842;28;20492;-47
2023/12/01 11:03:23;;;;;;;31.45;11.13;;;;;;;5.31;55.49;100954.16;5009734;28;20038;-49
2023/12/01 11:05:56;;;;;;;29.98;11.05;;;;;;;5.40;55.57;100952.75;5010275;28;20601;-46
2023/12/01 11:08:53;;;;;;;31.52;11.32;;;;;;;5.54;55.67;100944.66;5009955;28;20516;-47
2023/12/01 11:11:35;;;;;;;29.27;10.75;;;;;;;5.49;56.08;100950.50;5009783;28;20042;-48
2023/12/01 11:14:24;;;;;;;28.38;10.80;;;;;;;5.46;56.40;100947.78;5010900;28;20041;-47